createdAt,value
2023-02-15T00:00:16.340Z,11.60
2023-02-15T00:03:04.399Z,11.00
2023-02-15T00:05:32.798Z,12.40
2023-02-15T00:08:00.869Z,13.80
2023-02-15T00:10:29.055Z,13.10
2023-02-15T00:12:57.335Z,13.20
2023-02-15T00:15:27.069Z,11.60
2023-02-15T00:17:55.118Z,12.50
2023-02-15T00:20:23.094Z,13.90
2023-02-15T00:22:51.174Z,14.50
2023-02-15T00:25:19.250Z,14.60
2023-02-15T00:27:47.326Z,12.40
2023-02-15T00:30:15.842Z,15.50
2023-02-15T00:32:43.984Z,11.60
2023-02-15T00:35:13.400Z,12.80
2023-02-15T00:37:41.411Z,14.40
2023-02-15T00:40:10.376Z,14.60
2023-02-15T00:42:38.549Z,12.70
2023-02-15T00:45:07.343Z,12.90
2023-02-15T00:47:35.374Z,13.80
2023-02-15T00:50:04.414Z,11.50
2023-02-15T00:52:32.406Z,14.10
2023-02-15T00:55:00.468Z,11.90
2023-02-15T00:57:28.541Z,12.00
2023-02-15T00:59:56.874Z,11.80
2023-02-15T01:02:24.835Z,15.10
2023-02-15T01:04:52.994Z,13.90
2023-02-15T01:07:21.153Z,13.40
2023-02-15T01:09:49.251Z,10.50
2023-02-15T01:12:17.320Z,12.90
2023-02-15T01:14:45.490Z,12.10
2023-02-15T01:17:13.567Z,11.20
2023-02-15T01:19:41.719Z,13.20
2023-02-15T01:22:10.026Z,11.30
2023-02-15T01:24:38.512Z,12.80
2023-02-15T01:27:06.590Z,11.40
2023-02-15T01:29:34.661Z,13.50
2023-02-15T01:32:03.716Z,12.40
2023-02-15T01:34:31.836Z,14.60
2023-02-15T01:37:00.249Z,13.60
2023-02-15T01:39:28.304Z,11.50
2023-02-15T01:41:58.439Z,13.10
2023-02-15T01:44:48.622Z,15.30
2023-02-15T01:47:42.674Z,11.20
2023-02-15T01:50:17.623Z,14.40
2023-02-15T01:53:02.264Z,11.70
2023-02-15T01:55:36.773Z,13.60
2023-02-15T01:58:05.572Z,11.70
2023-02-15T02:00:35.575Z,12.50
2023-02-15T02:03:04.993Z,12.90
2023-02-15T02:05:34.117Z,12.60
2023-02-15T02:08:03.347Z,12.30
2023-02-15T02:10:32.700Z,11.20
2023-02-15T02:13:05.893Z,13.40
2023-02-15T02:15:56.623Z,12.20
2023-02-15T02:18:52.699Z,12.20
2023-02-15T02:21:42.780Z,11.00
2023-02-15T02:24:42.469Z,11.30
2023-02-15T02:27:42.689Z,12.60
2023-02-15T02:30:38.498Z,14.50
2023-02-15T02:33:15.782Z,13.20
2023-02-15T02:36:16.599Z,13.20
2023-02-15T02:39:01.470Z,15.80
2023-02-15T02:41:44.559Z,12.50
2023-02-15T02:44:50.826Z,13.50
2023-02-15T02:47:25.375Z,13.80
2023-02-15T02:50:00.492Z,12.20
2023-02-15T02:52:40.137Z,15.30
2023-02-15T02:55:14.549Z,14.60
2023-02-15T02:58:22.134Z,12.90
2023-02-15T03:00:55.953Z,13.10
2023-02-15T03:03:36.393Z,17.40
2023-02-15T03:06:12.041Z,15.00
2023-02-15T03:08:46.362Z,15.60
2023-02-15T03:11:14.848Z,15.10
2023-02-15T03:13:45.946Z,16.30
2023-02-15T03:16:34.883Z,15.10
2023-02-15T03:19:10.644Z,12.70
2023-02-15T03:24:25.752Z,13.00
2023-02-15T03:26:56.993Z,15.20
2023-02-15T03:29:29.106Z,12.50
2023-02-15T03:32:03.741Z,14.20
2023-02-15T03:34:32.098Z,14.20
2023-02-15T03:37:42.284Z,13.40
2023-02-15T03:40:46.451Z,14.70
2023-02-15T03:43:33.643Z,15.30
2023-02-15T03:46:14.868Z,15.20
2023-02-15T03:48:55.490Z,17.80
2023-02-15T03:51:35.146Z,13.60
2023-02-15T03:54:39.368Z,15.20
2023-02-15T03:57:30.603Z,13.40
2023-02-15T04:00:18.558Z,14.20
2023-02-15T04:02:57.917Z,15.50
2023-02-15T04:05:26.157Z,15.30
2023-02-15T04:07:54.075Z,16.00
2023-02-15T04:10:40.963Z,15.70
2023-02-15T04:13:08.949Z,14.40
2023-02-15T04:15:55.645Z,14.20
2023-02-15T04:18:42.153Z,15.50
2023-02-15T04:21:28.467Z,15.90
2023-02-15T04:24:15.048Z,17.20
2023-02-15T04:26:43.082Z,15.90
2023-02-15T04:29:11.180Z,14.70
2023-02-15T04:31:39.517Z,15.10
2023-02-15T04:34:07.749Z,15.60
2023-02-15T04:36:36.013Z,14.70
2023-02-15T04:39:04.512Z,14.50
2023-02-15T04:41:33.404Z,14.80
2023-02-15T04:44:02.147Z,17.40
2023-02-15T04:46:30.167Z,15.60
2023-02-15T04:48:58.856Z,15.60
2023-02-15T04:51:26.932Z,16.00
2023-02-15T04:53:55.050Z,15.90
2023-02-15T04:56:23.286Z,16.10
2023-02-15T04:58:51.463Z,16.20
2023-02-15T05:01:19.784Z,14.80
2023-02-15T05:03:48.127Z,15.10
2023-02-15T05:06:16.074Z,14.90
2023-02-15T05:08:44.392Z,14.40
2023-02-15T05:11:12.898Z,16.50
2023-02-15T05:13:41.263Z,15.00
2023-02-15T05:16:09.445Z,14.20
2023-02-15T05:18:37.623Z,14.00
2023-02-15T05:21:05.774Z,14.30
2023-02-15T05:23:33.867Z,15.20
2023-02-15T05:26:21.064Z,14.30
2023-02-15T05:28:49.016Z,11.40
2023-02-15T05:31:21.198Z,12.60
2023-02-15T05:33:49.418Z,14.20
2023-02-15T05:36:17.684Z,13.10
2023-02-15T05:38:46.076Z,13.10
2023-02-15T05:41:14.248Z,13.00
2023-02-15T05:43:42.631Z,11.30
2023-02-15T05:46:11.712Z,14.20
2023-02-15T05:48:39.823Z,12.50
2023-02-15T05:51:11.104Z,11.50
2023-02-15T05:53:40.469Z,12.40
2023-02-15T05:56:11.226Z,10.80
2023-02-15T05:58:41.751Z,11.70
2023-02-15T06:01:15.251Z,12.70
2023-02-15T06:03:43.542Z,10.20
2023-02-15T06:06:12.210Z,10.60
2023-02-15T06:08:40.598Z,10.80
2023-02-15T06:11:09.094Z,13.20
2023-02-15T06:13:38.907Z,12.50
2023-02-15T06:16:08.097Z,11.80
2023-02-15T06:18:36.385Z,12.00
2023-02-15T06:21:04.870Z,9.80
2023-02-15T06:23:32.934Z,14.80
2023-02-15T06:26:01.506Z,12.00
2023-02-15T06:28:29.808Z,12.30
2023-02-15T06:30:58.146Z,12.80
2023-02-15T06:33:26.482Z,13.50
2023-02-15T06:35:54.502Z,13.00
2023-02-15T06:38:22.534Z,12.10
2023-02-15T06:40:50.809Z,12.70
2023-02-15T06:43:19.188Z,12.00
2023-02-15T06:45:47.194Z,13.20
2023-02-15T06:48:15.265Z,11.40
2023-02-15T06:50:43.315Z,12.80
2023-02-15T06:53:11.460Z,13.20
2023-02-15T06:55:39.471Z,12.90
2023-02-15T06:58:07.957Z,15.00
2023-02-15T07:00:36.143Z,15.00
2023-02-15T07:03:04.195Z,12.40
2023-02-15T07:05:35.019Z,13.60
2023-02-15T07:08:03.540Z,12.60
2023-02-15T07:10:31.749Z,14.20
2023-02-15T07:12:59.985Z,12.00
2023-02-15T07:15:28.061Z,12.30
2023-02-15T07:17:56.047Z,12.90
2023-02-15T07:20:24.832Z,12.30
2023-02-15T07:22:53.207Z,14.10
2023-02-15T07:25:21.393Z,10.90
2023-02-15T07:27:49.487Z,12.60
2023-02-15T07:30:18.537Z,11.50
2023-02-15T07:33:05.906Z,11.00
2023-02-15T07:35:34.763Z,9.40
2023-02-15T07:38:02.846Z,10.00
2023-02-15T07:40:31.238Z,11.70
2023-02-15T07:43:00.409Z,9.90
2023-02-15T07:45:28.718Z,10.30
2023-02-15T07:47:56.792Z,9.40
2023-02-15T07:50:25.092Z,9.30
2023-02-15T07:52:53.422Z,8.70
2023-02-15T07:55:21.534Z,11.60
2023-02-15T07:57:51.014Z,9.20
2023-02-15T08:00:23.867Z,10.10
2023-02-15T08:03:14.312Z,12.00
2023-02-15T08:05:45.066Z,10.90
2023-02-15T08:08:32.269Z,17.80
2023-02-15T08:11:26.741Z,94.10
2023-02-15T08:13:57.720Z,80.00
2023-02-15T08:16:44.492Z,73.50
2023-02-15T08:19:21.370Z,62.90
2023-02-15T08:21:52.336Z,46.20
2023-02-15T08:24:22.860Z,39.90
2023-02-15T08:26:52.458Z,41.50
2023-02-15T08:29:23.602Z,48.80
2023-02-15T08:32:07.396Z,36.20
2023-02-15T08:34:41.871Z,35.20
2023-02-15T08:37:10.558Z,36.90
2023-02-15T08:39:38.739Z,32.90
2023-02-15T08:42:06.812Z,28.30
2023-02-15T08:44:34.880Z,30.70
2023-02-15T08:47:05.025Z,25.60
2023-02-15T08:49:33.702Z,26.60
2023-02-15T08:52:01.898Z,23.80
2023-02-15T08:54:30.269Z,29.10
2023-02-15T08:56:58.646Z,25.90
2023-02-15T08:59:28.046Z,23.80
2023-02-15T09:01:56.685Z,24.40
2023-02-15T09:04:24.928Z,20.00
2023-02-15T09:06:53.350Z,18.30
2023-02-15T09:09:22.860Z,16.00
2023-02-15T09:11:57.893Z,15.20
2023-02-15T09:14:28.599Z,15.80
2023-02-15T09:16:57.061Z,21.60
2023-02-15T09:19:26.123Z,15.70
2023-02-15T09:21:54.977Z,17.80
2023-02-15T09:24:23.140Z,13.00
2023-02-15T09:26:51.524Z,14.40
2023-02-15T09:29:20.839Z,13.00
2023-02-15T09:31:51.558Z,14.20
2023-02-15T09:34:22.010Z,12.70
2023-02-15T09:36:52.038Z,12.00
2023-02-15T09:39:30.113Z,13.50
2023-02-15T09:42:17.124Z,15.20
2023-02-15T09:45:32.887Z,11.70
2023-02-15T09:48:31.861Z,12.10
2023-02-15T09:51:22.880Z,12.80
2023-02-15T09:54:23.491Z,12.90
2023-02-15T09:57:00.359Z,12.70
2023-02-15T09:59:34.894Z,13.40
2023-02-15T10:02:17.906Z,10.80
2023-02-15T10:05:01.440Z,12.50
2023-02-15T10:07:38.517Z,11.90
2023-02-15T10:10:34.731Z,13.80
2023-02-15T10:13:34.524Z,12.10
2023-02-15T10:16:10.484Z,13.40
2023-02-15T10:18:56.874Z,12.10
2023-02-15T10:21:34.461Z,12.90
2023-02-15T10:24:20.054Z,11.10
2023-02-15T10:26:49.693Z,11.80
2023-02-15T10:29:31.365Z,9.20
2023-02-15T10:32:27.581Z,11.50
2023-02-15T10:35:02.703Z,10.10
2023-02-15T10:37:46.247Z,12.30
2023-02-15T10:41:03.160Z,10.30
2023-02-15T10:43:40.599Z,10.30
2023-02-15T10:46:25.154Z,11.80
2023-02-15T10:48:56.834Z,10.50
2023-02-15T10:51:38.512Z,10.90
2023-02-15T10:54:15.495Z,11.20
2023-02-15T10:56:49.396Z,10.80
2023-02-15T10:59:32.823Z,10.00
2023-02-15T11:02:16.147Z,10.90
2023-02-15T11:05:02.705Z,13.20
2023-02-15T11:07:36.360Z,11.50
2023-02-15T11:10:18.441Z,10.30
2023-02-15T11:12:48.265Z,11.50
2023-02-15T11:15:26.952Z,12.80
2023-02-15T11:18:06.832Z,11.60
2023-02-15T11:20:42.655Z,10.90
2023-02-15T11:23:17.320Z,10.30
2023-02-15T11:25:58.285Z,10.60
2023-02-15T11:28:51.321Z,13.40
2023-02-15T11:31:43.571Z,10.00
2023-02-15T11:34:20.121Z,11.10
2023-02-15T11:36:51.576Z,10.30
2023-02-15T11:39:22.514Z,12.30
2023-02-15T11:41:56.117Z,11.50
2023-02-15T11:44:42.936Z,11.50
2023-02-15T11:47:13.037Z,10.90
2023-02-15T11:49:41.226Z,11.80
2023-02-15T11:52:14.581Z,10.90
2023-02-15T11:54:51.068Z,10.30
2023-02-15T11:57:28.476Z,10.20
2023-02-15T12:00:05.771Z,11.70
2023-02-15T12:02:38.477Z,10.80
2023-02-15T12:05:13.294Z,11.90
2023-02-15T12:07:47.997Z,10.00
2023-02-15T12:10:25.860Z,11.70
2023-02-15T12:13:18.090Z,11.40
2023-02-15T12:15:50.163Z,9.90
2023-02-15T12:18:22.383Z,11.40
2023-02-15T12:20:50.954Z,11.60
2023-02-15T12:23:19.726Z,10.40
2023-02-15T12:25:56.810Z,12.30
2023-02-15T12:28:32.517Z,12.10
2023-02-15T12:31:03.493Z,15.20
2023-02-15T12:33:46.640Z,11.80
2023-02-15T12:36:27.832Z,12.20
2023-02-15T12:39:05.422Z,14.20
2023-02-15T12:41:33.899Z,10.90
2023-02-15T12:44:20.020Z,12.10
2023-02-15T12:47:19.475Z,12.10
2023-02-15T12:50:05.456Z,11.40
2023-02-15T12:52:33.634Z,12.60
2023-02-15T12:55:23.001Z,12.90
2023-02-15T12:58:20.453Z,12.50
2023-02-15T13:00:49.084Z,11.80
2023-02-15T13:03:25.003Z,11.20
2023-02-15T13:05:56.231Z,12.10
2023-02-15T13:08:36.813Z,11.00
2023-02-15T13:11:12.405Z,12.80
2023-02-15T13:16:33.613Z,12.30
2023-02-15T13:19:16.210Z,12.60
2023-02-15T13:21:51.258Z,11.10
2023-02-15T13:24:25.241Z,11.60
2023-02-15T13:27:09.310Z,12.40
2023-02-15T13:29:46.667Z,12.20
2023-02-15T13:32:30.192Z,10.90
2023-02-15T13:35:00.561Z,13.30
2023-02-15T13:38:10.042Z,13.50
2023-02-15T13:40:47.841Z,14.00
2023-02-15T13:43:34.023Z,12.10
2023-02-15T13:46:05.114Z,14.00
2023-02-15T13:48:51.294Z,15.10
2023-02-15T13:51:32.747Z,12.10
2023-02-15T13:54:10.843Z,12.60
2023-02-15T13:57:09.928Z,14.00
2023-02-15T13:59:57.157Z,13.30
2023-02-15T14:02:28.404Z,13.80
2023-02-15T14:05:27.181Z,15.30
2023-02-15T14:08:35.264Z,14.70
2023-02-15T14:11:14.293Z,13.00
2023-02-15T14:14:00.947Z,15.10
2023-02-15T14:17:00.684Z,15.20
2023-02-15T14:19:52.401Z,14.30
2023-02-15T14:22:36.432Z,14.10
2023-02-15T14:25:26.312Z,14.00
2023-02-15T14:28:29.117Z,15.20
2023-02-15T14:30:58.574Z,13.30
2023-02-15T14:33:34.360Z,15.20
2023-02-15T14:36:07.420Z,12.30
2023-02-15T14:39:46.827Z,15.40
2023-02-15T14:42:26.871Z,15.10
2023-02-15T14:45:18.186Z,17.20
2023-02-15T14:47:57.008Z,14.90
2023-02-15T14:50:31.048Z,16.10
2023-02-15T14:53:24.274Z,16.20
2023-02-15T14:56:10.266Z,17.50
2023-02-15T14:58:39.376Z,14.80
2023-02-15T15:01:10.599Z,17.70
2023-02-15T15:03:50.500Z,17.30
2023-02-15T15:06:28.865Z,18.10
2023-02-15T15:09:02.261Z,20.80
2023-02-15T15:11:42.626Z,16.80
2023-02-15T15:14:34.648Z,16.70
2023-02-15T15:17:04.971Z,18.60
2023-02-15T15:19:51.975Z,20.20
2023-02-15T15:22:22.549Z,19.10
2023-02-15T15:24:53.720Z,20.20
2023-02-15T15:27:51.409Z,19.60
2023-02-15T15:30:19.432Z,20.90
2023-02-15T15:33:00.142Z,21.80
2023-02-15T15:36:05.061Z,19.30
2023-02-15T15:39:18.367Z,18.90
2023-02-15T15:41:57.188Z,17.70
2023-02-15T15:44:59.860Z,19.50
2023-02-15T15:47:36.734Z,20.70
2023-02-15T15:50:22.921Z,17.80
2023-02-15T15:52:54.246Z,19.10
2023-02-15T15:55:28.688Z,18.60
2023-02-15T15:58:01.382Z,20.10
2023-02-15T16:00:41.945Z,16.80
2023-02-15T16:03:23.307Z,19.50
2023-02-15T16:05:56.219Z,19.30
2023-02-15T16:08:31.548Z,18.20
2023-02-15T16:11:14.562Z,18.20
2023-02-15T16:13:44.892Z,18.50
2023-02-15T16:16:20.384Z,17.00
2023-02-15T16:21:24.355Z,17.10
2023-02-15T16:26:36.067Z,17.30
2023-02-15T16:29:16.022Z,18.80
2023-02-15T16:31:44.690Z,17.80
2023-02-15T16:34:19.236Z,21.40
2023-02-15T16:36:47.416Z,19.00
2023-02-15T16:39:21.109Z,19.70
2023-02-15T16:41:55.428Z,20.60
2023-02-15T16:44:23.613Z,19.40
2023-02-15T16:46:55.109Z,18.50
2023-02-15T16:49:27.256Z,18.20
2023-02-15T16:52:06.997Z,16.30
2023-02-15T16:54:36.619Z,17.20
2023-02-15T16:57:04.972Z,16.80
2023-02-15T16:59:37.754Z,19.60
2023-02-15T17:02:14.516Z,16.40
2023-02-15T17:04:46.193Z,19.20
2023-02-15T17:07:21.428Z,17.70
2023-02-15T17:09:55.652Z,17.30
2023-02-15T17:12:48.380Z,19.10
2023-02-15T17:15:33.351Z,17.90
2023-02-15T17:18:16.570Z,20.70
2023-02-15T17:20:46.082Z,17.50
2023-02-15T17:23:26.644Z,19.30
2023-02-15T17:25:55.853Z,17.50
2023-02-15T17:28:27.101Z,15.90
2023-02-15T17:30:57.115Z,19.20
2023-02-15T17:33:34.508Z,21.60
2023-02-15T17:36:23.041Z,17.60
2023-02-15T17:39:23.361Z,19.10
2023-02-15T17:41:54.096Z,21.30
2023-02-15T17:44:22.268Z,18.90
2023-02-15T17:46:50.553Z,16.20
2023-02-15T17:49:35.017Z,19.70
2023-02-15T17:52:03.488Z,20.30
2023-02-15T17:54:57.885Z,18.60
2023-02-15T17:57:27.080Z,19.20
2023-02-15T18:00:14.297Z,19.60
2023-02-15T18:03:02.629Z,21.00
2023-02-15T18:05:50.348Z,19.50
2023-02-15T18:08:42.363Z,21.50
2023-02-15T18:11:32.455Z,22.10
2023-02-15T18:14:03.699Z,22.20
2023-02-15T18:16:35.368Z,23.00
2023-02-15T18:19:05.478Z,21.10
2023-02-15T18:21:34.474Z,23.40
2023-02-15T18:24:06.949Z,21.90
2023-02-15T18:26:36.676Z,21.80
2023-02-15T18:29:05.358Z,23.20
2023-02-15T18:31:36.957Z,22.90
2023-02-15T18:34:09.154Z,23.90
2023-02-15T18:36:44.208Z,24.80
2023-02-15T18:39:41.457Z,23.80
2023-02-15T18:42:25.087Z,25.00
2023-02-15T18:44:59.714Z,21.70
2023-02-15T18:47:27.897Z,25.40
2023-02-15T18:49:57.705Z,24.80
2023-02-15T18:52:33.048Z,28.20
2023-02-15T18:55:04.524Z,24.20
2023-02-15T18:57:33.290Z,27.80
2023-02-15T19:00:01.367Z,28.50
2023-02-15T19:02:29.576Z,28.10
2023-02-15T19:04:57.833Z,26.80
2023-02-15T19:07:28.058Z,28.30
2023-02-15T19:09:59.298Z,28.70
2023-02-15T19:12:30.972Z,32.20
2023-02-15T19:14:58.981Z,33.60
2023-02-15T19:17:26.946Z,31.60
2023-02-15T19:19:55.422Z,32.00
2023-02-15T19:22:30.436Z,35.90
2023-02-15T19:25:00.767Z,34.30
2023-02-15T19:27:31.508Z,37.80
2023-02-15T19:30:03.123Z,35.60
2023-02-15T19:32:31.336Z,36.20
2023-02-15T19:34:59.573Z,34.40
2023-02-15T19:37:43.916Z,35.50
2023-02-15T19:40:28.947Z,37.80
2023-02-15T19:42:57.724Z,36.20
2023-02-15T19:45:29.475Z,38.10
2023-02-15T19:47:57.777Z,36.90
2023-02-15T19:50:33.303Z,37.40
2023-02-15T19:53:02.641Z,39.50
2023-02-15T19:55:35.384Z,37.50
2023-02-15T19:58:04.399Z,35.40
2023-02-15T20:00:34.314Z,36.20
2023-02-15T20:03:02.597Z,38.50
2023-02-15T20:05:34.170Z,35.00
2023-02-15T20:08:04.477Z,39.10
2023-02-15T20:10:32.754Z,39.40
2023-02-15T20:13:01.561Z,34.80
2023-02-15T20:15:35.128Z,36.90
2023-02-15T20:18:04.353Z,39.40
2023-02-15T20:21:14.297Z,41.30
2023-02-15T20:23:42.669Z,40.80
2023-02-15T20:26:18.332Z,41.80
2023-02-15T20:28:46.912Z,38.40
2023-02-15T20:31:17.328Z,38.10
2023-02-15T20:33:46.039Z,35.80
2023-02-15T20:36:16.848Z,42.60
2023-02-15T20:38:45.827Z,37.60
2023-02-15T20:41:35.449Z,37.70
2023-02-15T20:44:23.757Z,43.90
2023-02-15T20:46:54.973Z,40.70
2023-02-15T20:49:24.596Z,41.00
2023-02-15T20:51:57.103Z,43.80
2023-02-15T20:54:30.911Z,40.00
2023-02-15T20:56:59.477Z,42.60
2023-02-15T20:59:27.673Z,41.20
2023-02-15T21:02:00.007Z,44.40
2023-02-15T21:04:33.547Z,47.10
2023-02-15T21:07:01.842Z,45.20
2023-02-15T21:09:31.748Z,45.90
2023-02-15T21:12:02.762Z,45.40
2023-02-15T21:14:31.284Z,43.10
2023-02-15T21:16:59.642Z,46.20
2023-02-15T21:19:27.941Z,43.80
2023-02-15T21:21:56.741Z,43.60
2023-02-15T21:24:28.049Z,42.80
2023-02-15T21:27:00.584Z,41.40
2023-02-15T21:29:30.485Z,42.70
2023-02-15T21:31:58.777Z,45.50
2023-02-15T21:34:27.042Z,43.00
2023-02-15T21:36:55.497Z,46.70
2023-02-15T21:39:26.470Z,44.40
2023-02-15T21:42:14.520Z,43.30
2023-02-15T21:45:01.496Z,44.70
2023-02-15T21:47:50.483Z,50.70
2023-02-15T21:50:39.837Z,44.00
2023-02-15T21:53:12.270Z,47.90
2023-02-15T21:55:40.512Z,48.20
2023-02-15T21:58:19.100Z,42.30
2023-02-15T22:00:47.670Z,44.60
2023-02-15T22:03:16.176Z,47.70
2023-02-15T22:05:44.141Z,46.70
2023-02-15T22:08:14.173Z,49.70
2023-02-15T22:10:43.278Z,47.20
2023-02-15T22:13:17.882Z,43.00
2023-02-15T22:15:47.376Z,48.80
2023-02-15T22:18:27.808Z,50.90
2023-02-15T22:20:57.011Z,48.90
2023-02-15T22:23:25.650Z,48.80
2023-02-15T22:25:57.112Z,50.40
2023-02-15T22:28:31.438Z,50.10
2023-02-15T22:31:00.598Z,46.60
2023-02-15T22:40:18.075Z,45.30
2023-02-15T22:42:49.009Z,42.50
2023-02-15T22:45:22.639Z,44.30
2023-02-15T22:47:53.504Z,45.00
2023-02-15T22:50:24.862Z,46.50
2023-02-15T22:52:53.381Z,41.70
2023-02-15T22:55:24.816Z,45.50
2023-02-15T22:57:55.832Z,45.10
2023-02-15T23:00:30.730Z,43.30
2023-02-15T23:02:58.770Z,47.90
2023-02-15T23:05:30.246Z,42.70
2023-02-15T23:07:58.314Z,43.80
2023-02-15T23:10:29.040Z,43.60
2023-02-15T23:13:18.438Z,40.30
2023-02-15T23:15:51.579Z,44.40
2023-02-15T23:18:24.698Z,47.90
2023-02-15T23:20:57.757Z,43.80
2023-02-15T23:23:32.861Z,47.90
2023-02-15T23:26:04.127Z,46.30
2023-02-15T23:28:38.303Z,40.90
2023-02-15T23:31:23.801Z,47.30
2023-02-15T23:33:53.596Z,42.40
2023-02-15T23:36:39.257Z,42.10
2023-02-15T23:39:36.756Z,41.90
2023-02-15T23:42:26.118Z,45.10
2023-02-15T23:44:54.513Z,43.10
2023-02-15T23:47:44.324Z,42.20
2023-02-15T23:50:19.144Z,40.90
2023-02-15T23:52:47.515Z,43.00
2023-02-15T23:55:16.468Z,39.40
2023-02-15T23:57:45.487Z,41.10
